sensor_id;sensor_type;location;lat;lon;timestamp;pressure;altitude;pressure_sealevel;temperature;humidity
71948;BME280;59820;55.076;38.766;2022-08-21T00:00:37;100800.44;;;15.20;52.69
71948;BME280;59820;55.076;38.766;2022-08-21T00:03:07;100811.66;;;15.25;52.66
71948;BME280;59820;55.076;38.766;2022-08-21T00:05:39;100824.13;;;15.25;52.81
71948;BME280;59820;55.076;38.766;2022-08-21T00:08:05;100830.38;;;15.24;52.67
71948;BME280;59820;55.076;38.766;2022-08-21T00:10:31;100828.84;;;15.20;53.10
71948;BME280;59820;55.076;38.766;2022-08-21T00:12:59;100828.16;;;15.16;53.04
71948;BME280;59820;55.076;38.766;2022-08-21T00:15:28;100808.47;;;15.04;53.41
71948;BME280;59820;55.076;38.766;2022-08-21T00:17:55;100823.13;;;15.12;53.05
71948;BME280;59820;55.076;38.766;2022-08-21T00:20:22;100800.84;;;14.98;52.86
71948;BME280;59820;55.076;38.766;2022-08-21T00:22:48;100820.66;;;15.08;53.24
71948;BME280;59820;55.076;38.766;2022-08-21T00:25:16;100827.84;;;15.06;53.34
71948;BME280;59820;55.076;38.766;2022-08-21T00:27:42;100818.41;;;15.01;53.63
71948;BME280;59820;55.076;38.766;2022-08-21T00:30:10;100803.09;;;14.90;53.47
71948;BME280;59820;55.076;38.766;2022-08-21T00:32:38;100810.31;;;14.88;53.67
71948;BME280;59820;55.076;38.766;2022-08-21T00:35:06;100807.13;;;14.81;53.80
71948;BME280;59820;55.076;38.766;2022-08-21T00:37:34;100823.50;;;14.89;53.80
71948;BME280;59820;55.076;38.766;2022-08-21T00:40:00;100821.88;;;14.87;54.27
71948;BME280;59820;55.076;38.766;2022-08-21T00:42:28;100808.41;;;14.74;54.02
71948;BME280;59820;55.076;38.766;2022-08-21T00:44:55;100819.56;;;14.81;53.99
71948;BME280;59820;55.076;38.766;2022-08-21T00:47:21;100825.16;;;14.76;54.10
71948;BME280;59820;55.076;38.766;2022-08-21T00:49:47;100804.41;;;14.67;53.97
71948;BME280;59820;55.076;38.766;2022-08-21T00:52:17;100821.13;;;14.69;54.56
71948;BME280;59820;55.076;38.766;2022-08-21T00:54:45;100808.22;;;14.61;54.55
71948;BME280;59820;55.076;38.766;2022-08-21T00:57:19;100792.56;;;14.56;54.88
71948;BME280;59820;55.076;38.766;2022-08-21T00:59:49;100798.28;;;14.49;55.01
71948;BME280;59820;55.076;38.766;2022-08-21T01:02:18;100814.38;;;14.62;54.83
71948;BME280;59820;55.076;38.766;2022-08-21T01:04:46;100798.28;;;14.49;54.71
71948;BME280;59820;55.076;38.766;2022-08-21T01:07:12;100814.94;;;14.52;55.27
71948;BME280;59820;55.076;38.766;2022-08-21T01:09:39;100813.47;;;14.47;55.04
71948;BME280;59820;55.076;38.766;2022-08-21T01:12:06;100804.19;;;14.38;54.96
71948;BME280;59820;55.076;38.766;2022-08-21T01:14:32;100822.19;;;14.49;55.23
71948;BME280;59820;55.076;38.766;2022-08-21T01:17:01;100821.59;;;14.43;55.40
71948;BME280;59820;55.076;38.766;2022-08-21T01:19:29;100811.66;;;14.31;55.61
71948;BME280;59820;55.076;38.766;2022-08-21T01:21:55;100820.13;;;14.38;55.43
71948;BME280;59820;55.076;38.766;2022-08-21T01:24:21;100807.78;;;14.37;55.70
71948;BME280;59820;55.076;38.766;2022-08-21T01:26:48;100814.31;;;14.47;55.25
71948;BME280;59820;55.076;38.766;2022-08-21T01:29:20;100826.22;;;14.56;55.51
71948;BME280;59820;55.076;38.766;2022-08-21T01:31:49;100816.63;;;14.53;55.13
71948;BME280;59820;55.076;38.766;2022-08-21T01:34:15;100821.47;;;14.63;54.88
71948;BME280;59820;55.076;38.766;2022-08-21T01:36:42;100812.78;;;14.59;54.75
71948;BME280;59820;55.076;38.766;2022-08-21T01:39:08;100824.72;;;14.68;54.88
71948;BME280;59820;55.076;38.766;2022-08-21T01:41:53;100825.91;;;14.62;55.39
71948;BME280;59820;55.076;38.766;2022-08-21T01:44:23;100803.59;;;14.49;55.10
71948;BME280;59820;55.076;38.766;2022-08-21T01:46:50;100821.94;;;14.53;55.09
71948;BME280;59820;55.076;38.766;2022-08-21T01:49:17;100804.72;;;14.45;55.38
71948;BME280;59820;55.076;38.766;2022-08-21T01:51:43;100817.50;;;14.54;55.49
71948;BME280;59820;55.076;38.766;2022-08-21T01:54:09;100808.41;;;14.42;55.13
71948;BME280;59820;55.076;38.766;2022-08-21T01:56:43;100814.41;;;14.46;55.64
71948;BME280;59820;55.076;38.766;2022-08-21T01:59:11;100815.63;;;14.40;55.71
71948;BME280;59820;55.076;38.766;2022-08-21T02:01:38;100816.63;;;14.37;55.78
71948;BME280;59820;55.076;38.766;2022-08-21T02:04:06;100804.97;;;14.24;55.64
71948;BME280;59820;55.076;38.766;2022-08-21T02:06:33;100813.88;;;14.23;56.16
71948;BME280;59820;55.076;38.766;2022-08-21T02:08:59;100819.28;;;14.21;56.00
71948;BME280;59820;55.076;38.766;2022-08-21T02:11:25;100818.59;;;14.18;56.36
71948;BME280;59820;55.076;38.766;2022-08-21T02:13:51;100815.16;;;14.16;56.38
71948;BME280;59820;55.076;38.766;2022-08-21T02:16:17;100812.31;;;14.19;56.56
71948;BME280;59820;55.076;38.766;2022-08-21T02:18:43;100810.53;;;14.19;56.38
71948;BME280;59820;55.076;38.766;2022-08-21T02:21:09;100816.69;;;14.20;56.16
71948;BME280;59820;55.076;38.766;2022-08-21T02:23:35;100818.25;;;14.24;56.11
71948;BME280;59820;55.076;38.766;2022-08-21T02:26:04;100820.81;;;14.25;56.08
71948;BME280;59820;55.076;38.766;2022-08-21T02:28:30;100804.22;;;14.22;55.56
71948;BME280;59820;55.076;38.766;2022-08-21T02:30:56;100799.47;;;14.27;55.77
71948;BME280;59820;55.076;38.766;2022-08-21T02:33:24;100820.41;;;14.33;55.95
71948;BME280;59820;55.076;38.766;2022-08-21T02:35:50;100824.00;;;14.32;55.81
71948;BME280;59820;55.076;38.766;2022-08-21T02:38:21;100840.63;;;14.36;55.81
71948;BME280;59820;55.076;38.766;2022-08-21T02:40:49;100833.84;;;14.30;56.11
71948;BME280;59820;55.076;38.766;2022-08-21T02:43:16;100815.59;;;14.24;55.87
71948;BME280;59820;55.076;38.766;2022-08-21T02:45:44;100825.09;;;14.28;56.11
71948;BME280;59820;55.076;38.766;2022-08-21T02:48:14;100818.34;;;14.22;55.90
71948;BME280;59820;55.076;38.766;2022-08-21T02:50:46;100820.72;;;14.27;56.20
71948;BME280;59820;55.076;38.766;2022-08-21T02:53:15;100813.78;;;14.24;55.90
71948;BME280;59820;55.076;38.766;2022-08-21T02:55:43;100827.44;;;14.34;56.14
71948;BME280;59820;55.076;38.766;2022-08-21T02:58:10;100833.25;;;14.41;55.55
71948;BME280;59820;55.076;38.766;2022-08-21T03:00:38;100830.00;;;14.36;55.60
71948;BME280;59820;55.076;38.766;2022-08-21T03:03:05;100838.50;;;14.42;55.70
71948;BME280;59820;55.076;38.766;2022-08-21T03:05:32;100844.75;;;14.41;56.01
71948;BME280;59820;55.076;38.766;2022-08-21T03:08:01;100853.47;;;14.43;55.89
71948;BME280;59820;55.076;38.766;2022-08-21T03:10:27;100852.25;;;14.49;55.72
71948;BME280;59820;55.076;38.766;2022-08-21T03:12:54;100853.81;;;14.53;55.93
71948;BME280;59820;55.076;38.766;2022-08-21T03:15:22;100828.44;;;14.48;55.37
71948;BME280;59820;55.076;38.766;2022-08-21T03:17:50;100847.25;;;14.61;55.67
71948;BME280;59820;55.076;38.766;2022-08-21T03:20:19;100847.16;;;14.62;55.79
71948;BME280;59820;55.076;38.766;2022-08-21T03:22:47;100845.19;;;14.66;55.37
71948;BME280;59820;55.076;38.766;2022-08-21T03:25:12;100839.53;;;14.72;55.31
71948;BME280;59820;55.076;38.766;2022-08-21T03:27:39;100847.00;;;14.81;55.19
71948;BME280;59820;55.076;38.766;2022-08-21T03:30:06;100828.50;;;14.80;54.84
71948;BME280;59820;55.076;38.766;2022-08-21T03:32:33;100835.16;;;14.87;54.91
71948;BME280;59820;55.076;38.766;2022-08-21T03:34:58;100844.81;;;15.04;54.38
71948;BME280;59820;55.076;38.766;2022-08-21T03:37:26;100845.41;;;15.09;54.12
71948;BME280;59820;55.076;38.766;2022-08-21T03:39:52;100846.56;;;15.19;54.02
71948;BME280;59820;55.076;38.766;2022-08-21T03:42:18;100845.19;;;15.28;53.89
71948;BME280;59820;55.076;38.766;2022-08-21T03:44:44;100846.25;;;15.40;53.44
71948;BME280;59820;55.076;38.766;2022-08-21T03:47:10;100837.16;;;15.44;53.34
71948;BME280;59820;55.076;38.766;2022-08-21T03:49:37;100832.41;;;15.49;53.25
71948;BME280;59820;55.076;38.766;2022-08-21T03:52:04;100836.34;;;15.58;52.98
71948;BME280;59820;55.076;38.766;2022-08-21T03:54:30;100842.13;;;15.65;52.55
71948;BME280;59820;55.076;38.766;2022-08-21T03:56:57;100823.78;;;15.60;52.33
71948;BME280;59820;55.076;38.766;2022-08-21T03:59:23;100836.47;;;15.71;52.62
71948;BME280;59820;55.076;38.766;2022-08-21T04:01:55;100831.72;;;15.76;52.42
71948;BME280;59820;55.076;38.766;2022-08-21T04:04:22;100831.34;;;15.82;52.22
71948;BME280;59820;55.076;38.766;2022-08-21T04:06:47;100835.66;;;15.85;52.13
71948;BME280;59820;55.076;38.766;2022-08-21T04:09:16;100832.78;;;15.88;51.73
71948;BME280;59820;55.076;38.766;2022-08-21T04:11:42;100830.03;;;15.89;52.43
71948;BME280;59820;55.076;38.766;2022-08-21T04:14:08;100837.06;;;15.90;51.98
71948;BME280;59820;55.076;38.766;2022-08-21T04:16:35;100832.97;;;15.85;51.86
71948;BME280;59820;55.076;38.766;2022-08-21T04:19:01;100832.78;;;15.88;52.23
71948;BME280;59820;55.076;38.766;2022-08-21T04:21:27;100820.19;;;15.75;51.92
71948;BME280;59820;55.076;38.766;2022-08-21T04:23:56;100830.22;;;15.86;52.05
71948;BME280;59820;55.076;38.766;2022-08-21T04:26:22;100810.88;;;15.68;52.08
71948;BME280;59820;55.076;38.766;2022-08-21T04:28:48;100823.63;;;15.77;52.12
71948;BME280;59820;55.076;38.766;2022-08-21T04:31:14;100830.09;;;15.73;52.33
71948;BME280;59820;55.076;38.766;2022-08-21T04:33:40;100820.09;;;15.63;52.57
71948;BME280;59820;55.076;38.766;2022-08-21T04:36:07;100827.31;;;15.60;51.98
71948;BME280;59820;55.076;38.766;2022-08-21T04:38:33;100850.34;;;15.76;51.91
71948;BME280;59820;55.076;38.766;2022-08-21T04:41:00;100848.53;;;15.76;52.12
71948;BME280;59820;55.076;38.766;2022-08-21T04:43:25;100848.22;;;15.83;52.93
71948;BME280;59820;55.076;38.766;2022-08-21T04:45:52;100844.22;;;15.90;52.78
71948;BME280;59820;55.076;38.766;2022-08-21T04:48:21;100838.59;;;15.94;52.49
71948;BME280;59820;55.076;38.766;2022-08-21T04:53:33;100838.50;;;16.10;51.60
71948;BME280;59820;55.076;38.766;2022-08-21T04:56:04;100818.16;;;16.09;51.88
71948;BME280;59820;55.076;38.766;2022-08-21T04:58:34;100822.31;;;16.14;51.31
71948;BME280;59820;55.076;38.766;2022-08-21T05:01:03;100837.59;;;16.39;51.54
71948;BME280;59820;55.076;38.766;2022-08-21T05:03:32;100829.91;;;16.49;51.01
71948;BME280;59820;55.076;38.766;2022-08-21T05:05:59;100834.84;;;16.55;51.15
71948;BME280;59820;55.076;38.766;2022-08-21T05:08:26;100824.84;;;16.58;50.75
71948;BME280;59820;55.076;38.766;2022-08-21T05:10:54;100825.84;;;16.70;50.52
71948;BME280;59820;55.076;38.766;2022-08-21T05:13:23;100817.56;;;16.75;50.36
71948;BME280;59820;55.076;38.766;2022-08-21T05:15:49;100822.19;;;16.86;49.98
71948;BME280;59820;55.076;38.766;2022-08-21T05:18:15;100820.63;;;16.96;49.35
71948;BME280;59820;55.076;38.766;2022-08-21T05:20:41;100816.50;;;17.05;49.36
71948;BME280;59820;55.076;38.766;2022-08-21T05:23:10;100824.75;;;17.15;49.46
71948;BME280;59820;55.076;38.766;2022-08-21T05:25:37;100824.13;;;17.24;49.05
71948;BME280;59820;55.076;38.766;2022-08-21T05:28:04;100817.72;;;17.26;48.96
71948;BME280;59820;55.076;38.766;2022-08-21T05:30:30;100823.72;;;17.43;48.34
71948;BME280;59820;55.076;38.766;2022-08-21T05:32:57;100813.16;;;17.41;48.38
71948;BME280;59820;55.076;38.766;2022-08-21T05:35:25;100828.44;;;17.65;48.10
71948;BME280;59820;55.076;38.766;2022-08-21T05:37:51;100828.66;;;17.75;47.73
71948;BME280;59820;55.076;38.766;2022-08-21T05:40:18;100818.41;;;17.81;47.60
71948;BME280;59820;55.076;38.766;2022-08-21T05:42:44;100821.00;;;17.96;47.08
71948;BME280;59820;55.076;38.766;2022-08-21T05:45:10;100819.19;;;18.09;45.94
71948;BME280;59820;55.076;38.766;2022-08-21T05:47:36;100816.59;;;18.21;45.91
71948;BME280;59820;55.076;38.766;2022-08-21T05:50:04;100828.19;;;18.33;45.41
71948;BME280;59820;55.076;38.766;2022-08-21T05:52:30;100801.47;;;18.33;45.00
71948;BME280;59820;55.076;38.766;2022-08-21T05:54:57;100816.84;;;18.55;44.82
71948;BME280;59820;55.076;38.766;2022-08-21T05:57:22;100818.69;;;18.65;43.97
71948;BME280;59820;55.076;38.766;2022-08-21T05:59:49;100811.84;;;18.74;43.85
71948;BME280;59820;55.076;38.766;2022-08-21T06:02:17;100819.69;;;18.89;43.07
71948;BME280;59820;55.076;38.766;2022-08-21T06:04:43;100818.06;;;18.99;42.70
71948;BME280;59820;55.076;38.766;2022-08-21T06:07:09;100813.00;;;19.07;42.33
71948;BME280;59820;55.076;38.766;2022-08-21T06:13:54;100807.75;;;19.41;40.92
71948;BME280;59820;55.076;38.766;2022-08-21T06:16:20;100809.47;;;19.54;40.11
71948;BME280;59820;55.076;38.766;2022-08-21T06:18:47;100799.59;;;19.54;39.94
71948;BME280;59820;55.076;38.766;2022-08-21T06:21:14;100814.97;;;19.75;39.80
71948;BME280;59820;55.076;38.766;2022-08-21T06:23:41;100802.44;;;19.75;38.90
71948;BME280;59820;55.076;38.766;2022-08-21T06:26:07;100807.72;;;19.88;39.25
71948;BME280;59820;55.076;38.766;2022-08-21T06:28:35;100759.09;;;19.70;38.32
71948;BME280;59820;55.076;38.766;2022-08-21T06:31:19;100813.81;;;20.13;37.48
71948;BME280;59820;55.076;38.766;2022-08-21T06:33:46;100805.63;;;20.26;37.37
71948;BME280;59820;55.076;38.766;2022-08-21T06:36:12;100798.66;;;20.34;38.00
71948;BME280;59820;55.076;38.766;2022-08-21T06:38:38;100804.13;;;20.56;37.33
71948;BME280;59820;55.076;38.766;2022-08-21T06:41:05;100784.25;;;20.58;37.58
71948;BME280;59820;55.076;38.766;2022-08-21T06:43:31;100790.56;;;20.68;36.59
71948;BME280;59820;55.076;38.766;2022-08-21T06:45:57;100798.34;;;20.83;36.20
71948;BME280;59820;55.076;38.766;2022-08-21T06:48:24;100796.44;;;20.95;36.01
71948;BME280;59820;55.076;38.766;2022-08-21T06:50:50;100795.28;;;21.09;35.57
71948;BME280;59820;55.076;38.766;2022-08-21T06:53:18;100787.69;;;21.14;35.27
71948;BME280;59820;55.076;38.766;2022-08-21T06:55:44;100781.28;;;21.26;34.27
71948;BME280;59820;55.076;38.766;2022-08-21T06:58:11;100792.28;;;21.44;34.14
71948;BME280;59820;55.076;38.766;2022-08-21T07:00:40;100786.75;;;21.57;33.37
71948;BME280;59820;55.076;38.766;2022-08-21T07:03:07;100790.34;;;21.67;33.64
71948;BME280;59820;55.076;38.766;2022-08-21T07:05:33;100789.84;;;21.83;33.53
71948;BME280;59820;55.076;38.766;2022-08-21T07:07:59;100791.84;;;21.91;32.96
71948;BME280;59820;55.076;38.766;2022-08-21T07:10:25;100777.28;;;21.94;32.43
71948;BME280;59820;55.076;38.766;2022-08-21T07:12:52;100788.38;;;22.10;33.00
71948;BME280;59820;55.076;38.766;2022-08-21T07:15:20;100787.84;;;22.16;33.14
71948;BME280;59820;55.076;38.766;2022-08-21T07:17:46;100781.66;;;22.26;32.60
71948;BME280;59820;55.076;38.766;2022-08-21T07:20:12;100796.44;;;22.41;32.31
71948;BME280;59820;55.076;38.766;2022-08-21T07:22:38;100780.31;;;22.51;32.46
71948;BME280;59820;55.076;38.766;2022-08-21T07:25:06;100783.16;;;22.69;32.34
71948;BME280;59820;55.076;38.766;2022-08-21T07:27:34;100775.81;;;22.81;31.96
71948;BME280;59820;55.076;38.766;2022-08-21T07:29:59;100782.63;;;22.95;31.42
71948;BME280;59820;55.076;38.766;2022-08-21T07:32:25;100779.47;;;23.09;31.35
71948;BME280;59820;55.076;38.766;2022-08-21T07:34:51;100768.72;;;23.19;30.76
71948;BME280;59820;55.076;38.766;2022-08-21T07:37:17;100773.09;;;23.30;30.48
71948;BME280;59820;55.076;38.766;2022-08-21T07:39:43;100761.91;;;23.34;30.64
71948;BME280;59820;55.076;38.766;2022-08-21T07:42:10;100777.31;;;23.52;29.64
71948;BME280;59820;55.076;38.766;2022-08-21T07:44:36;100780.84;;;23.62;28.71
71948;BME280;59820;55.076;38.766;2022-08-21T07:47:02;100776.81;;;23.76;29.05
71948;BME280;59820;55.076;38.766;2022-08-21T07:49:28;100750.28;;;23.81;29.40
71948;BME280;59820;55.076;38.766;2022-08-21T07:51:53;100753.53;;;23.95;29.33
71948;BME280;59820;55.076;38.766;2022-08-21T07:54:20;100741.72;;;23.96;28.92
71948;BME280;59820;55.076;38.766;2022-08-21T07:56:47;100738.88;;;23.97;28.48
71948;BME280;59820;55.076;38.766;2022-08-21T07:59:13;100748.16;;;24.13;28.39
71948;BME280;59820;55.076;38.766;2022-08-21T08:01:39;100742.50;;;24.34;27.65
71948;BME280;59820;55.076;38.766;2022-08-21T08:04:04;100732.34;;;24.46;27.19
71948;BME280;59820;55.076;38.766;2022-08-21T08:06:30;100737.97;;;24.52;26.81
71948;BME280;59820;55.076;38.766;2022-08-21T08:08:56;100740.75;;;24.61;26.53
71948;BME280;59820;55.076;38.766;2022-08-21T08:11:22;100733.13;;;24.74;26.41
71948;BME280;59820;55.076;38.766;2022-08-21T08:13:50;100743.69;;;24.85;26.38
71948;BME280;59820;55.076;38.766;2022-08-21T08:16:42;100737.34;;;24.95;26.92
71948;BME280;59820;55.076;38.766;2022-08-21T08:19:09;100730.63;;;24.99;26.66
71948;BME280;59820;55.076;38.766;2022-08-21T08:21:36;100730.69;;;25.07;25.77
71948;BME280;59820;55.076;38.766;2022-08-21T08:24:03;100731.63;;;25.16;25.32
71948;BME280;59820;55.076;38.766;2022-08-21T08:26:29;100738.28;;;25.30;25.58
71948;BME280;59820;55.076;38.766;2022-08-21T08:28:55;100734.19;;;25.44;25.82
71948;BME280;59820;55.076;38.766;2022-08-21T08:31:21;100732.56;;;25.59;25.49
71948;BME280;59820;55.076;38.766;2022-08-21T08:33:48;100725.03;;;25.71;24.57
71948;BME280;59820;55.076;38.766;2022-08-21T08:36:16;100721.50;;;25.79;24.33
71948;BME280;59820;55.076;38.766;2022-08-21T08:38:42;100720.03;;;25.84;24.04
71948;BME280;59820;55.076;38.766;2022-08-21T08:41:17;100725.38;;;26.02;24.29
71948;BME280;59820;55.076;38.766;2022-08-21T08:44:03;100734.69;;;26.08;22.95
71948;BME280;59820;55.076;38.766;2022-08-21T08:49:06;100727.00;;;26.46;22.28
71948;BME280;59820;55.076;38.766;2022-08-21T08:51:54;100731.22;;;26.65;22.31
71948;BME280;59820;55.076;38.766;2022-08-21T08:54:32;100719.22;;;26.68;21.87
71948;BME280;59820;55.076;38.766;2022-08-21T08:57:00;100721.63;;;26.71;21.33
71948;BME280;59820;55.076;38.766;2022-08-21T08:59:35;100724.16;;;26.72;22.89
71948;BME280;59820;55.076;38.766;2022-08-21T09:02:02;100725.84;;;26.73;21.54
71948;BME280;59820;55.076;38.766;2022-08-21T09:04:28;100728.53;;;26.73;20.29
71948;BME280;59820;55.076;38.766;2022-08-21T09:10:18;100739.25;;;26.91;22.00
71948;BME280;59820;55.076;38.766;2022-08-21T09:26:23;100739.56;;;26.97;21.43
71948;BME280;59820;55.076;38.766;2022-08-21T09:32:23;100722.47;;;26.96;21.92
71948;BME280;59820;55.076;38.766;2022-08-21T09:35:06;100724.47;;;27.02;22.15
71948;BME280;59820;55.076;38.766;2022-08-21T09:37:45;100739.53;;;27.05;22.04
71948;BME280;59820;55.076;38.766;2022-08-21T09:40:32;100732.47;;;27.04;21.50
71948;BME280;59820;55.076;38.766;2022-08-21T09:45:27;100712.97;;;27.08;22.52
71948;BME280;59820;55.076;38.766;2022-08-21T09:47:54;100726.31;;;27.26;23.52
71948;BME280;59820;55.076;38.766;2022-08-21T09:50:23;100732.56;;;27.35;23.96
71948;BME280;59820;55.076;38.766;2022-08-21T09:52:58;100738.31;;;27.32;23.00
71948;BME280;59820;55.076;38.766;2022-08-21T09:55:48;100721.72;;;27.27;23.18
71948;BME280;59820;55.076;38.766;2022-08-21T09:58:35;100720.25;;;27.16;23.42
71948;BME280;59820;55.076;38.766;2022-08-21T10:01:05;100730.38;;;27.22;23.27
71948;BME280;59820;55.076;38.766;2022-08-21T10:03:31;100733.28;;;27.13;22.99
71948;BME280;59820;55.076;38.766;2022-08-21T10:06:04;100744.66;;;27.00;22.57
71948;BME280;59820;55.076;38.766;2022-08-21T10:08:33;100737.53;;;27.07;22.18
71948;BME280;59820;55.076;38.766;2022-08-21T10:11:07;100697.41;;;26.86;22.95
71948;BME280;59820;55.076;38.766;2022-08-21T10:24:58;100727.06;;;26.79;23.72
71948;BME280;59820;55.076;38.766;2022-08-21T10:30:08;100714.34;;;26.71;23.49
71948;BME280;59820;55.076;38.766;2022-08-21T10:47:04;100689.94;;;27.04;25.12
71948;BME280;59820;55.076;38.766;2022-08-21T10:52:45;100688.25;;;27.03;24.51
71948;BME280;59820;55.076;38.766;2022-08-21T10:55:18;100708.22;;;26.94;24.24
71948;BME280;59820;55.076;38.766;2022-08-21T10:58:33;100711.47;;;26.98;24.33
71948;BME280;59820;55.076;38.766;2022-08-21T11:00:59;100716.88;;;27.06;22.87
71948;BME280;59820;55.076;38.766;2022-08-21T11:03:38;100715.88;;;26.99;22.74
71948;BME280;59820;55.076;38.766;2022-08-21T11:06:13;100705.84;;;27.07;22.65
71948;BME280;59820;55.076;38.766;2022-08-21T11:08:44;100711.63;;;27.04;22.71
71948;BME280;59820;55.076;38.766;2022-08-21T11:13:55;100697.25;;;27.04;22.73
71948;BME280;59820;55.076;38.766;2022-08-21T11:16:41;100701.28;;;27.16;22.64
71948;BME280;59820;55.076;38.766;2022-08-21T11:19:25;100703.28;;;27.22;22.99
71948;BME280;59820;55.076;38.766;2022-08-21T11:30:13;100708.94;;;26.88;20.88
71948;BME280;59820;55.076;38.766;2022-08-21T11:38:28;100711.47;;;26.98;21.26
71948;BME280;59820;55.076;38.766;2022-08-21T11:41:13;100702.31;;;26.99;20.34
71948;BME280;59820;55.076;38.766;2022-08-21T11:43:48;100698.75;;;26.98;20.85
71948;BME280;59820;55.076;38.766;2022-08-21T11:57:34;100666.56;;;27.12;21.76
71948;BME280;59820;55.076;38.766;2022-08-21T12:02:45;100667.72;;;27.17;21.46
71948;BME280;59820;55.076;38.766;2022-08-21T12:05:32;100681.28;;;27.17;21.14
71948;BME280;59820;55.076;38.766;2022-08-21T12:08:04;100669.81;;;27.07;21.24
71948;BME280;59820;55.076;38.766;2022-08-21T12:10:34;100683.31;;;27.23;21.70
71948;BME280;59820;55.076;38.766;2022-08-21T12:13:30;100689.75;;;27.22;21.40
71948;BME280;59820;55.076;38.766;2022-08-21T12:16:35;100687.88;;;27.23;22.62
71948;BME280;59820;55.076;38.766;2022-08-21T12:19:09;100682.31;;;27.24;21.93
71948;BME280;59820;55.076;38.766;2022-08-21T12:22:06;100681.09;;;27.19;21.67
71948;BME280;59820;55.076;38.766;2022-08-21T12:24:47;100672.16;;;27.18;21.93
71948;BME280;59820;55.076;38.766;2022-08-21T12:30:06;100666.06;;;27.16;21.26
71948;BME280;59820;55.076;38.766;2022-08-21T12:32:46;100668.91;;;27.15;20.91
71948;BME280;59820;55.076;38.766;2022-08-21T12:35:46;100665.03;;;27.09;21.36
71948;BME280;59820;55.076;38.766;2022-08-21T12:38:18;100651.34;;;26.94;21.12
71948;BME280;59820;55.076;38.766;2022-08-21T12:40:57;100660.34;;;26.86;20.93
71948;BME280;59820;55.076;38.766;2022-08-21T12:43:43;100670.31;;;26.86;20.68
71948;BME280;59820;55.076;38.766;2022-08-21T12:46:21;100672.00;;;26.95;20.42
71948;BME280;59820;55.076;38.766;2022-08-21T12:49:02;100656.47;;;26.81;20.24
71948;BME280;59820;55.076;38.766;2022-08-21T12:51:38;100659.00;;;26.90;20.35
71948;BME280;59820;55.076;38.766;2022-08-21T12:54:08;100658.81;;;26.92;20.41
71948;BME280;59820;55.076;38.766;2022-08-21T12:56:34;100664.56;;;26.97;20.42
71948;BME280;59820;55.076;38.766;2022-08-21T12:59:07;100653.75;;;26.97;20.64
71948;BME280;59820;55.076;38.766;2022-08-21T13:01:43;100656.31;;;26.82;21.03
71948;BME280;59820;55.076;38.766;2022-08-21T13:04:36;100658.84;;;26.84;21.63
71948;BME280;59820;55.076;38.766;2022-08-21T13:07:07;100655.78;;;26.79;20.75
71948;BME280;59820;55.076;38.766;2022-08-21T13:09:48;100639.19;;;26.73;20.61
71948;BME280;59820;55.076;38.766;2022-08-21T13:12:15;100649.88;;;26.83;20.65
71948;BME280;59820;55.076;38.766;2022-08-21T13:14:44;100659.66;;;26.84;20.10
71948;BME280;59820;55.076;38.766;2022-08-21T13:17:12;100656.31;;;26.82;21.63
71948;BME280;59820;55.076;38.766;2022-08-21T13:19:39;100653.94;;;26.87;20.51
71948;BME280;59820;55.076;38.766;2022-08-21T13:22:18;100641.25;;;26.80;20.81
71948;BME280;59820;55.076;38.766;2022-08-21T13:24:47;100652.41;;;26.93;20.52
71948;BME280;59820;55.076;38.766;2022-08-21T13:27:20;100649.16;;;26.98;20.12
71948;BME280;59820;55.076;38.766;2022-08-21T13:29:46;100645.59;;;27.14;19.91
71948;BME280;59820;55.076;38.766;2022-08-21T13:32:22;100648.38;;;27.53;19.14
71948;BME280;59820;55.076;38.766;2022-08-21T13:34:51;100636.41;;;27.71;18.29
71948;BME280;59820;55.076;38.766;2022-08-21T13:37:19;100641.31;;;27.75;18.44
71948;BME280;59820;55.076;38.766;2022-08-21T13:39:50;100634.69;;;27.78;18.26
71948;BME280;59820;55.076;38.766;2022-08-21T13:42:17;100636.81;;;27.91;18.62
71948;BME280;59820;55.076;38.766;2022-08-21T13:44:45;100636.31;;;28.19;17.69
71948;BME280;59820;55.076;38.766;2022-08-21T13:47:14;100637.94;;;28.51;17.84
71948;BME280;59820;55.076;38.766;2022-08-21T13:49:49;100617.06;;;28.29;18.22
71948;BME280;59820;55.076;38.766;2022-08-21T13:54:43;100621.53;;;28.44;18.55
71948;BME280;59820;55.076;38.766;2022-08-21T13:57:24;100615.50;;;28.34;17.92
71948;BME280;59820;55.076;38.766;2022-08-21T14:02:46;100619.00;;;28.20;17.97
71948;BME280;59820;55.076;38.766;2022-08-21T14:05:27;100628.41;;;28.09;18.37
71948;BME280;59820;55.076;38.766;2022-08-21T14:08:11;100634.28;;;27.89;18.14
71948;BME280;59820;55.076;38.766;2022-08-21T14:10:46;100641.44;;;27.82;18.62
71948;BME280;59820;55.076;38.766;2022-08-21T14:13:43;100631.94;;;27.47;19.52
71948;BME280;59820;55.076;38.766;2022-08-21T14:16:19;100637.19;;;27.48;19.47
71948;BME280;59820;55.076;38.766;2022-08-21T14:18:49;100641.78;;;27.39;19.29
71948;BME280;59820;55.076;38.766;2022-08-21T14:28:38;100621.53;;;27.11;20.77
71948;BME280;59820;55.076;38.766;2022-08-21T14:31:19;100641.72;;;27.08;21.34
71948;BME280;59820;55.076;38.766;2022-08-21T14:33:46;100613.63;;;26.84;21.99
71948;BME280;59820;55.076;38.766;2022-08-21T14:36:12;100626.69;;;26.89;21.38
71948;BME280;59820;55.076;38.766;2022-08-21T14:38:40;100633.47;;;26.85;21.71
71948;BME280;59820;55.076;38.766;2022-08-21T14:41:18;100634.81;;;26.72;21.60
71948;BME280;59820;55.076;38.766;2022-08-21T14:43:45;100639.16;;;26.65;22.64